createdAt,value
2019-01-13T00:00:11.719Z,984.99
2019-01-13T00:01:09.400Z,985.04
2019-01-13T00:02:09.391Z,985.03
2019-01-13T00:03:09.391Z,985.02
2019-01-13T00:04:09.466Z,985.00
2019-01-13T00:05:09.398Z,985.03
2019-01-13T00:06:09.353Z,985.07
2019-01-13T00:07:09.337Z,985.04
2019-01-13T00:08:09.343Z,985.05
2019-01-13T00:09:09.312Z,985.02
2019-01-13T00:10:09.308Z,984.97
2019-01-13T00:11:09.309Z,985.03
2019-01-13T00:12:09.281Z,985.05
2019-01-13T00:13:09.268Z,985.06
2019-01-13T00:14:09.282Z,985.07
2019-01-13T00:15:09.256Z,985.05
2019-01-13T00:16:09.237Z,985.02
2019-01-13T00:17:09.243Z,985.07
2019-01-13T00:18:09.237Z,985.05
2019-01-13T00:19:09.234Z,985.05
2019-01-13T00:20:09.193Z,985.09
2019-01-13T00:21:09.188Z,985.07
2019-01-13T00:22:09.178Z,985.07
2019-01-13T00:23:09.201Z,985.03
2019-01-13T00:24:09.172Z,985.04
2019-01-13T00:25:09.180Z,985.07
2019-01-13T00:26:09.131Z,985.03
2019-01-13T00:27:09.122Z,985.04
2019-01-13T00:28:09.110Z,985.05
2019-01-13T00:29:09.141Z,985.07
2019-01-13T00:30:09.136Z,985.03
2019-01-13T00:31:09.120Z,984.99
2019-01-13T00:32:09.082Z,984.97
2019-01-13T00:33:09.065Z,984.97
2019-01-13T00:34:09.064Z,985.01
2019-01-13T00:35:09.076Z,985.03
2019-01-13T00:36:09.032Z,985.07
2019-01-13T00:37:09.062Z,985.04
2019-01-13T00:38:09.047Z,985.01
2019-01-13T00:39:08.997Z,985.06
2019-01-13T00:40:09.004Z,985.04
2019-01-13T00:41:09.016Z,985.04
2019-01-13T00:42:08.987Z,985.06
2019-01-13T00:43:08.995Z,985.11
2019-01-13T00:44:08.984Z,985.05
2019-01-13T00:45:08.937Z,985.13
2019-01-13T00:46:09.155Z,985.10
2019-01-13T00:47:08.934Z,985.12
2019-01-13T00:48:08.899Z,985.07
2019-01-13T00:49:08.892Z,985.13
2019-01-13T00:50:08.958Z,985.10
2019-01-13T00:51:08.874Z,985.06
2019-01-13T00:52:08.881Z,985.12
2019-01-13T00:53:09.044Z,985.09
2019-01-13T00:54:08.840Z,985.13
2019-01-13T00:55:08.858Z,985.06
2019-01-13T00:56:08.816Z,985.07
2019-01-13T00:57:08.805Z,985.08
2019-01-13T00:58:08.819Z,985.11
2019-01-13T00:59:08.835Z,985.11
2019-01-13T01:00:08.772Z,985.05
2019-01-13T01:01:08.813Z,985.04
2019-01-13T01:02:08.766Z,984.97
2019-01-13T01:03:08.741Z,984.94
2019-01-13T01:04:08.761Z,984.90
2019-01-13T01:05:08.735Z,984.89
2019-01-13T01:06:08.713Z,984.85
2019-01-13T01:07:08.728Z,984.86
2019-01-13T01:08:08.701Z,984.81
2019-01-13T01:09:08.746Z,984.89
2019-01-13T01:10:08.715Z,984.89
2019-01-13T01:11:08.684Z,984.82
2019-01-13T01:12:08.669Z,984.81
2019-01-13T01:13:08.668Z,984.82
2019-01-13T01:14:08.642Z,984.79
2019-01-13T01:15:08.610Z,984.78
2019-01-13T01:16:08.614Z,984.73
2019-01-13T01:17:08.596Z,984.70
2019-01-13T01:18:08.611Z,984.65
2019-01-13T01:19:08.575Z,984.69
2019-01-13T01:20:08.561Z,984.66
2019-01-13T01:21:08.604Z,984.67
2019-01-13T01:22:08.553Z,984.70
2019-01-13T01:23:08.529Z,984.68
2019-01-13T01:24:08.515Z,984.61
2019-01-13T01:25:08.509Z,984.63
2019-01-13T01:26:08.529Z,984.66
2019-01-13T01:27:08.500Z,984.66
2019-01-13T01:28:08.815Z,984.65
2019-01-13T01:29:08.461Z,984.64
2019-01-13T01:30:08.453Z,984.66
2019-01-13T01:31:08.463Z,984.69
2019-01-13T01:32:08.489Z,984.69
2019-01-13T01:33:08.424Z,984.69
2019-01-13T01:34:08.425Z,984.64
2019-01-13T01:35:08.400Z,984.68
2019-01-13T01:36:08.389Z,984.71
2019-01-13T01:37:08.395Z,984.76
2019-01-13T01:38:08.409Z,984.67
2019-01-13T01:39:08.376Z,984.70
2019-01-13T01:40:08.385Z,984.71
2019-01-13T01:41:08.342Z,984.73
2019-01-13T01:42:08.337Z,984.74
2019-01-13T01:43:08.338Z,984.69
2019-01-13T01:44:08.370Z,984.68
2019-01-13T01:45:08.309Z,984.68
2019-01-13T01:46:08.327Z,984.68
2019-01-13T01:47:08.293Z,984.68
2019-01-13T01:48:08.271Z,984.68
2019-01-13T01:49:08.314Z,984.57
2019-01-13T01:50:08.289Z,984.61
2019-01-13T01:51:08.291Z,984.62
2019-01-13T01:52:08.241Z,984.64
2019-01-13T01:53:08.205Z,984.66
2019-01-13T01:54:08.199Z,984.67
2019-01-13T01:55:08.223Z,984.64
2019-01-13T01:56:08.183Z,984.66
2019-01-13T01:57:08.226Z,984.62
2019-01-13T01:58:08.155Z,984.57
2019-01-13T01:59:08.171Z,984.65
2019-01-13T02:00:08.206Z,984.61
2019-01-13T02:01:08.136Z,984.58
2019-01-13T02:02:08.116Z,984.59
2019-01-13T02:03:08.105Z,984.56
2019-01-13T02:04:08.142Z,984.52
2019-01-13T02:05:08.171Z,984.48
2019-01-13T02:06:08.165Z,984.44
2019-01-13T02:07:08.102Z,984.47
2019-01-13T02:08:08.058Z,984.47
2019-01-13T02:09:08.097Z,984.44
2019-01-13T02:10:08.075Z,984.59
2019-01-13T02:11:08.023Z,984.51
2019-01-13T02:12:08.008Z,984.46
2019-01-13T02:13:07.989Z,984.43
2019-01-13T02:14:08.029Z,984.38
2019-01-13T02:15:07.994Z,984.42
2019-01-13T02:16:07.981Z,984.34
2019-01-13T02:17:07.951Z,984.32
2019-01-13T02:18:07.938Z,984.25
2019-01-13T02:19:07.945Z,984.15
2019-01-13T02:20:07.938Z,984.16
2019-01-13T02:21:07.923Z,984.13
2019-01-13T02:22:07.896Z,984.04
2019-01-13T02:23:07.897Z,984.02
2019-01-13T02:24:07.881Z,984.02
2019-01-13T02:25:07.919Z,983.99
2019-01-13T02:26:07.887Z,983.97
2019-01-13T02:27:07.862Z,983.95
2019-01-13T02:28:07.886Z,983.96
2019-01-13T02:29:07.825Z,984.01
2019-01-13T02:30:07.827Z,983.95
2019-01-13T02:31:08.052Z,983.98
2019-01-13T02:32:07.834Z,984.10
2019-01-13T02:33:07.798Z,984.00
2019-01-13T02:34:07.804Z,984.06
2019-01-13T02:35:07.793Z,983.98
2019-01-13T02:36:07.753Z,983.99
2019-01-13T02:37:07.739Z,984.02
2019-01-13T02:38:07.738Z,983.89
2019-01-13T02:39:07.749Z,983.93
2019-01-13T02:40:07.725Z,983.92
2019-01-13T02:41:07.761Z,983.87
2019-01-13T02:42:07.736Z,983.82
2019-01-13T02:43:07.676Z,983.83
2019-01-13T02:44:07.661Z,983.81
2019-01-13T02:45:07.711Z,983.83
2019-01-13T02:46:07.642Z,983.77
2019-01-13T02:47:07.634Z,983.79
2019-01-13T02:48:07.640Z,983.81
2019-01-13T02:49:07.617Z,983.86
2019-01-13T02:50:07.618Z,983.87
2019-01-13T02:51:07.637Z,983.89
2019-01-13T02:52:07.813Z,983.94
2019-01-13T02:53:07.568Z,983.88
2019-01-13T02:54:07.568Z,983.93
2019-01-13T02:55:07.564Z,983.92
2019-01-13T02:56:07.537Z,983.94
2019-01-13T02:57:07.557Z,983.93
2019-01-13T02:58:07.523Z,983.82
2019-01-13T02:59:07.508Z,983.87
2019-01-13T03:00:07.520Z,983.91
2019-01-13T03:01:07.511Z,983.87
2019-01-13T03:02:07.500Z,983.91
2019-01-13T03:03:07.495Z,983.92
2019-01-13T03:04:07.455Z,983.95
2019-01-13T03:05:07.449Z,983.96
2019-01-13T03:06:07.459Z,983.96
2019-01-13T03:07:07.419Z,983.99
2019-01-13T03:08:07.418Z,984.04
2019-01-13T03:09:07.432Z,984.04
2019-01-13T03:10:07.390Z,984.07
2019-01-13T03:11:07.385Z,984.07
2019-01-13T03:12:07.395Z,984.04
2019-01-13T03:13:07.368Z,984.15
2019-01-13T03:14:07.353Z,984.07
2019-01-13T03:15:07.371Z,984.16
2019-01-13T03:16:07.328Z,984.18
2019-01-13T03:17:07.328Z,984.17
2019-01-13T03:18:07.335Z,984.16
2019-01-13T03:19:07.309Z,984.15
2019-01-13T03:20:07.356Z,984.13
2019-01-13T03:21:07.296Z,984.15
2019-01-13T03:22:07.276Z,984.09
2019-01-13T03:23:07.325Z,984.05
2019-01-13T03:24:07.288Z,984.04
2019-01-13T03:25:07.292Z,984.02
2019-01-13T03:26:07.245Z,984.08
2019-01-13T03:27:07.275Z,983.99
2019-01-13T03:28:07.208Z,984.03
2019-01-13T03:29:07.214Z,983.99
2019-01-13T03:30:07.202Z,984.01
2019-01-13T03:31:11.835Z,983.98
2019-01-13T03:32:08.182Z,983.98
2019-01-13T03:33:07.195Z,983.98
2019-01-13T03:34:07.159Z,984.00
2019-01-13T03:35:07.158Z,984.03
2019-01-13T03:36:07.156Z,984.01
2019-01-13T03:37:07.112Z,983.96
2019-01-13T03:38:07.106Z,983.89
2019-01-13T03:39:07.105Z,983.82
2019-01-13T03:40:07.134Z,983.87
2019-01-13T03:41:07.082Z,983.70
2019-01-13T03:42:07.054Z,983.72
2019-01-13T03:43:07.048Z,983.68
2019-01-13T03:44:07.044Z,983.60
2019-01-13T03:45:07.050Z,983.54
2019-01-13T03:46:07.068Z,983.53
2019-01-13T03:47:07.032Z,983.51
2019-01-13T03:48:06.995Z,983.50
2019-01-13T03:49:06.994Z,983.45
2019-01-13T03:50:07.003Z,983.46
2019-01-13T03:51:07.002Z,983.45
2019-01-13T03:52:06.962Z,983.41
2019-01-13T03:53:06.948Z,983.36
2019-01-13T03:54:06.979Z,983.37
2019-01-13T03:55:06.966Z,983.33
2019-01-13T03:56:06.917Z,983.32
2019-01-13T03:57:06.897Z,983.36
2019-01-13T03:58:06.901Z,983.25
2019-01-13T03:59:06.926Z,983.21
2019-01-13T04:00:06.923Z,983.16
2019-01-13T04:01:06.864Z,983.17
2019-01-13T04:02:06.846Z,983.08
2019-01-13T04:03:06.866Z,983.05
2019-01-13T04:04:06.851Z,983.12
2019-01-13T04:05:06.828Z,983.08
2019-01-13T04:06:06.815Z,983.08
2019-01-13T04:07:06.800Z,983.03
2019-01-13T04:08:06.844Z,983.03
2019-01-13T04:09:06.800Z,983.04
2019-01-13T04:10:06.802Z,982.98
2019-01-13T04:11:06.754Z,982.92
2019-01-13T04:12:06.749Z,982.91
2019-01-13T04:13:06.746Z,982.94
2019-01-13T04:14:06.726Z,982.90
2019-01-13T04:15:06.720Z,982.84
2019-01-13T04:16:06.728Z,982.88
2019-01-13T04:17:06.738Z,982.90
2019-01-13T04:18:06.696Z,982.93
2019-01-13T04:19:06.689Z,982.93
2019-01-13T04:20:06.664Z,983.02
2019-01-13T04:21:06.651Z,982.87
2019-01-13T04:22:06.730Z,982.87
2019-01-13T04:23:06.626Z,982.79
2019-01-13T04:24:06.623Z,982.78
2019-01-13T04:25:06.635Z,982.76
2019-01-13T04:26:06.611Z,982.81
2019-01-13T04:27:06.583Z,982.84
2019-01-13T04:28:06.627Z,982.81
2019-01-13T04:29:06.605Z,982.86
2019-01-13T04:30:06.561Z,982.82
2019-01-13T04:31:06.544Z,982.80
2019-01-13T04:32:06.562Z,982.78
2019-01-13T04:33:06.554Z,982.79
2019-01-13T04:34:06.544Z,982.76
2019-01-13T04:35:06.508Z,982.70
2019-01-13T04:36:06.542Z,982.72
2019-01-13T04:37:06.540Z,982.69
2019-01-13T04:38:06.469Z,982.71
2019-01-13T04:39:06.452Z,982.63
2019-01-13T04:40:06.459Z,982.63
2019-01-13T04:41:06.439Z,982.62
2019-01-13T04:42:06.497Z,982.62
2019-01-13T04:43:06.425Z,982.57
2019-01-13T04:44:06.409Z,982.54
2019-01-13T04:45:06.411Z,982.52
2019-01-13T04:46:06.407Z,982.60
2019-01-13T04:47:06.406Z,982.58
2019-01-13T04:48:06.365Z,982.56
2019-01-13T04:49:06.351Z,982.51
2019-01-13T04:50:06.346Z,982.46
2019-01-13T04:51:06.330Z,982.39
2019-01-13T04:52:06.411Z,982.38
2019-01-13T04:53:06.314Z,982.40
2019-01-13T04:54:06.294Z,982.37
2019-01-13T04:55:06.286Z,982.38
2019-01-13T04:56:06.280Z,982.39
2019-01-13T04:57:06.259Z,982.36
2019-01-13T04:58:06.593Z,982.35
2019-01-13T04:59:06.255Z,982.26
2019-01-13T05:00:06.316Z,982.22
2019-01-13T05:01:06.287Z,982.17
2019-01-13T05:02:06.241Z,982.17
2019-01-13T05:03:06.207Z,981.97
2019-01-13T05:04:06.201Z,982.04
2019-01-13T05:05:06.178Z,982.01
2019-01-13T05:06:06.212Z,982.03
2019-01-13T05:07:06.227Z,981.96
2019-01-13T05:08:06.153Z,982.04
2019-01-13T05:09:06.168Z,982.05
2019-01-13T05:10:06.125Z,981.99
2019-01-13T05:11:06.146Z,981.89
2019-01-13T05:12:06.136Z,981.74
2019-01-13T05:13:06.155Z,981.74
2019-01-13T05:14:06.093Z,981.84
2019-01-13T05:15:06.086Z,981.87
2019-01-13T05:16:06.099Z,981.87
2019-01-13T05:17:06.101Z,981.78
2019-01-13T05:18:06.143Z,981.77
2019-01-13T05:19:06.068Z,981.73
2019-01-13T05:20:06.032Z,981.70
2019-01-13T05:21:06.037Z,981.71
2019-01-13T05:22:06.018Z,981.67
2019-01-13T05:23:06.087Z,981.68
2019-01-13T05:24:05.990Z,981.65
2019-01-13T05:25:05.976Z,981.67
2019-01-13T05:26:05.972Z,981.70
2019-01-13T05:27:06.012Z,981.66
2019-01-13T05:28:05.966Z,981.61
2019-01-13T05:29:05.929Z,981.57
2019-01-13T05:30:05.941Z,981.56
2019-01-13T05:31:05.904Z,981.52
2019-01-13T05:32:05.914Z,981.53
2019-01-13T05:33:05.924Z,981.51
2019-01-13T05:34:05.873Z,981.52
2019-01-13T05:35:05.919Z,981.47
2019-01-13T05:36:05.879Z,981.52
2019-01-13T05:37:05.852Z,981.46
2019-01-13T05:38:05.891Z,981.42
2019-01-13T05:39:05.840Z,981.43
2019-01-13T05:40:05.806Z,981.37
2019-01-13T05:41:05.800Z,981.32
2019-01-13T05:42:05.815Z,981.33
2019-01-13T05:43:05.823Z,981.40
2019-01-13T05:44:05.781Z,981.38
2019-01-13T05:45:05.758Z,981.33
2019-01-13T05:46:05.771Z,981.36
2019-01-13T05:47:05.750Z,981.25
2019-01-13T05:48:05.723Z,981.29
2019-01-13T05:49:05.713Z,981.26
2019-01-13T05:50:05.716Z,981.24
2019-01-13T05:51:05.721Z,981.30
2019-01-13T05:52:05.704Z,981.30
2019-01-13T05:53:05.687Z,981.30
2019-01-13T05:54:05.693Z,981.27
2019-01-13T05:55:05.650Z,981.18
2019-01-13T05:56:05.674Z,981.17
2019-01-13T05:57:05.714Z,981.15
2019-01-13T05:58:05.634Z,981.20
2019-01-13T05:59:05.635Z,981.15
2019-01-13T06:00:05.622Z,981.20
2019-01-13T06:01:05.594Z,981.17
2019-01-13T06:02:05.674Z,981.17
2019-01-13T06:03:05.593Z,981.13
2019-01-13T06:04:05.565Z,981.16
2019-01-13T06:05:05.562Z,981.15
2019-01-13T06:06:05.601Z,981.18
2019-01-13T06:07:05.589Z,981.23
2019-01-13T06:08:05.635Z,981.17
2019-01-13T06:09:05.576Z,981.22
2019-01-13T06:10:05.623Z,981.23
2019-01-13T06:11:05.556Z,981.25
2019-01-13T06:12:05.629Z,981.28
2019-01-13T06:13:05.560Z,981.31
2019-01-13T06:14:05.505Z,981.24
2019-01-13T06:15:05.482Z,981.23
2019-01-13T06:16:05.534Z,981.29
2019-01-13T06:17:05.491Z,981.30
2019-01-13T06:18:05.480Z,981.31
2019-01-13T06:19:05.403Z,981.25
2019-01-13T06:20:05.393Z,981.27
2019-01-13T06:21:05.416Z,981.25
2019-01-13T06:22:05.439Z,981.25
2019-01-13T06:23:05.500Z,981.24
2019-01-13T06:24:05.393Z,981.27
2019-01-13T06:25:05.433Z,981.16
2019-01-13T06:26:05.406Z,981.24
2019-01-13T06:27:05.407Z,981.16
2019-01-13T06:28:05.376Z,981.17
2019-01-13T06:29:05.332Z,981.15
2019-01-13T06:30:05.325Z,981.12
2019-01-13T06:31:05.290Z,981.11
2019-01-13T06:32:05.274Z,981.08
2019-01-13T06:33:05.351Z,981.08
2019-01-13T06:34:05.289Z,981.07
2019-01-13T06:35:05.305Z,981.08
2019-01-13T06:36:05.227Z,981.03
2019-01-13T06:37:05.223Z,981.09
2019-01-13T06:38:06.246Z,981.06
2019-01-13T06:39:05.398Z,981.09
2019-01-13T06:40:05.248Z,981.05
2019-01-13T06:41:05.234Z,981.05
2019-01-13T06:42:05.247Z,981.09
2019-01-13T06:43:05.184Z,981.11
2019-01-13T06:44:05.185Z,981.03
2019-01-13T06:45:05.236Z,981.07
2019-01-13T06:46:05.154Z,981.12
2019-01-13T06:47:05.124Z,981.10
2019-01-13T06:48:05.176Z,981.08
2019-01-13T06:49:05.131Z,981.03
2019-01-13T06:50:05.089Z,981.03
2019-01-13T06:51:05.156Z,980.94
2019-01-13T06:52:05.078Z,981.03
2019-01-13T06:53:05.109Z,980.97
2019-01-13T06:54:05.083Z,980.95
2019-01-13T06:55:05.036Z,980.92
2019-01-13T06:56:05.072Z,980.99
2019-01-13T06:57:05.147Z,980.93
2019-01-13T06:58:04.995Z,980.92
2019-01-13T06:59:05.051Z,980.87
2019-01-13T07:00:05.037Z,980.91
2019-01-13T07:01:05.008Z,980.86
2019-01-13T07:02:05.566Z,980.93
2019-01-13T07:03:05.004Z,980.87
2019-01-13T07:04:04.928Z,980.89
2019-01-13T07:05:04.917Z,980.88
2019-01-13T07:06:04.920Z,980.91
2019-01-13T07:07:04.893Z,980.83
2019-01-13T07:08:04.887Z,980.83
2019-01-13T07:09:05.077Z,980.83
2019-01-13T07:10:04.932Z,980.83
2019-01-13T07:11:04.919Z,980.80
2019-01-13T07:12:04.910Z,980.84
2019-01-13T07:13:04.886Z,980.78
2019-01-13T07:14:04.946Z,980.76
2019-01-13T07:15:04.976Z,980.74
2019-01-13T07:16:04.834Z,980.77
2019-01-13T07:17:04.915Z,980.78
2019-01-13T07:18:04.802Z,980.74
2019-01-13T07:19:04.769Z,980.69
2019-01-13T07:20:04.763Z,980.67
2019-01-13T07:21:04.841Z,980.66
2019-01-13T07:22:04.758Z,980.69
2019-01-13T07:23:04.745Z,980.60
2019-01-13T07:24:04.776Z,980.69
2019-01-13T07:25:04.732Z,980.62
2019-01-13T07:26:04.767Z,980.68
2019-01-13T07:27:04.815Z,980.69
2019-01-13T07:28:04.744Z,980.65
2019-01-13T07:29:04.682Z,980.62
2019-01-13T07:30:04.717Z,980.65
2019-01-13T07:31:04.693Z,980.54
2019-01-13T07:32:10.789Z,980.48
2019-01-13T07:33:05.680Z,980.53
2019-01-13T07:34:04.617Z,980.45
2019-01-13T07:35:04.669Z,980.48
2019-01-13T07:36:04.626Z,980.48
2019-01-13T07:37:04.628Z,980.53
2019-01-13T07:38:04.597Z,980.49
2019-01-13T07:39:04.623Z,980.42
2019-01-13T07:40:04.557Z,980.38
2019-01-13T07:41:04.548Z,980.41
2019-01-13T07:42:04.576Z,980.40
2019-01-13T07:43:04.576Z,980.38
2019-01-13T07:44:04.578Z,980.41
2019-01-13T07:45:04.494Z,980.41
2019-01-13T07:46:04.496Z,980.40
2019-01-13T07:47:04.694Z,980.46
2019-01-13T07:48:04.463Z,980.43
2019-01-13T07:49:04.464Z,980.37
2019-01-13T07:50:04.470Z,980.42
2019-01-13T07:51:04.428Z,980.33
2019-01-13T07:52:04.458Z,980.39
2019-01-13T07:53:04.410Z,980.26
2019-01-13T07:54:04.428Z,980.26
2019-01-13T07:55:04.387Z,980.24
2019-01-13T07:56:04.378Z,980.27
2019-01-13T07:57:04.378Z,980.30
2019-01-13T07:58:04.456Z,980.29
2019-01-13T07:59:04.345Z,980.21
2019-01-13T08:00:04.399Z,980.14
2019-01-13T08:01:04.372Z,980.27
2019-01-13T08:02:04.311Z,980.29
2019-01-13T08:03:04.303Z,980.25
2019-01-13T08:04:04.324Z,980.29
2019-01-13T08:05:04.282Z,980.34
2019-01-13T08:06:04.271Z,980.33
2019-01-13T08:07:04.277Z,980.27
2019-01-13T08:08:04.471Z,980.32
2019-01-13T08:09:04.245Z,980.25
2019-01-13T08:10:04.276Z,980.26
2019-01-13T08:11:04.222Z,980.21
2019-01-13T08:12:04.204Z,980.16
2019-01-13T08:13:04.216Z,980.17
2019-01-13T08:14:04.182Z,980.13
2019-01-13T08:15:04.177Z,980.05
2019-01-13T08:16:04.193Z,980.16
2019-01-13T08:17:04.150Z,980.11
2019-01-13T08:18:04.162Z,980.15
2019-01-13T08:19:04.130Z,980.11
2019-01-13T08:20:04.118Z,980.01
2019-01-13T08:21:04.112Z,980.07
2019-01-13T08:22:04.108Z,980.09
2019-01-13T08:23:04.140Z,980.02
2019-01-13T08:24:04.094Z,980.10
2019-01-13T08:25:04.065Z,980.03
2019-01-13T08:26:04.090Z,980.06
2019-01-13T08:27:04.047Z,979.99
2019-01-13T08:28:04.052Z,979.99
2019-01-13T08:29:04.083Z,980.06
2019-01-13T08:30:04.013Z,980.05
2019-01-13T08:31:04.004Z,980.02
2019-01-13T08:32:03.995Z,980.09
2019-01-13T08:33:04.002Z,980.02
2019-01-13T08:34:03.989Z,979.97
2019-01-13T08:35:03.963Z,979.98
2019-01-13T08:36:03.947Z,980.00
2019-01-13T08:37:03.968Z,979.99
2019-01-13T08:38:03.927Z,979.81
2019-01-13T08:39:03.931Z,979.96
2019-01-13T08:40:03.931Z,979.84
2019-01-13T08:41:03.897Z,979.89
2019-01-13T08:42:03.897Z,979.86
2019-01-13T08:43:03.901Z,979.82
2019-01-13T08:44:03.866Z,979.84
2019-01-13T08:45:03.866Z,979.82
2019-01-13T08:46:03.847Z,979.85
2019-01-13T08:47:03.933Z,979.81
2019-01-13T08:48:03.830Z,979.86
2019-01-13T08:49:03.822Z,979.88
2019-01-13T08:50:03.811Z,979.84
2019-01-13T08:51:03.849Z,979.79
2019-01-13T08:52:03.779Z,979.77
2019-01-13T08:53:03.765Z,979.83
2019-01-13T08:54:03.771Z,979.75
2019-01-13T08:55:03.752Z,979.77
2019-01-13T08:56:03.750Z,979.79
2019-01-13T08:57:03.747Z,979.79
2019-01-13T08:58:03.731Z,979.76
2019-01-13T08:59:03.702Z,979.82
2019-01-13T09:00:03.723Z,979.76
2019-01-13T09:01:03.677Z,979.73
2019-01-13T09:02:03.670Z,979.77
2019-01-13T09:03:03.686Z,979.75
2019-01-13T09:04:03.700Z,979.78
2019-01-13T09:05:03.636Z,979.67
2019-01-13T09:06:03.631Z,979.65
2019-01-13T09:07:03.622Z,979.66
2019-01-13T09:08:03.603Z,979.66
2019-01-13T09:09:03.616Z,979.60
2019-01-13T09:10:03.648Z,979.63
2019-01-13T09:11:03.572Z,979.57
2019-01-13T09:12:03.603Z,979.61
2019-01-13T09:13:03.578Z,979.68
2019-01-13T09:14:03.535Z,979.53
2019-01-13T09:15:03.526Z,979.57
2019-01-13T09:16:03.579Z,979.50
2019-01-13T09:17:03.509Z,979.55
2019-01-13T09:18:03.512Z,979.40
2019-01-13T09:19:03.512Z,979.46
2019-01-13T09:20:03.483Z,979.38
2019-01-13T09:21:03.485Z,979.48
2019-01-13T09:22:03.575Z,979.38
2019-01-13T09:23:03.481Z,979.44
2019-01-13T09:24:03.448Z,979.33
2019-01-13T09:25:03.422Z,979.37
2019-01-13T09:26:03.423Z,979.36
2019-01-13T09:27:03.419Z,979.41
2019-01-13T09:28:03.677Z,979.35
2019-01-13T09:29:03.394Z,979.33
2019-01-13T09:30:03.415Z,979.34
2019-01-13T09:31:03.366Z,979.33
2019-01-13T09:32:03.347Z,979.32
2019-01-13T09:33:03.372Z,979.24
2019-01-13T09:34:03.515Z,979.34
2019-01-13T09:35:03.314Z,979.36
2019-01-13T09:36:03.303Z,979.31
2019-01-13T09:37:03.366Z,979.25
2019-01-13T09:38:03.283Z,979.26
2019-01-13T09:39:03.313Z,979.34
2019-01-13T09:40:03.259Z,979.36
2019-01-13T09:41:03.296Z,979.28
2019-01-13T09:42:03.236Z,979.22
2019-01-13T09:43:03.264Z,979.19
2019-01-13T09:44:03.253Z,979.22
2019-01-13T09:45:03.208Z,979.17
2019-01-13T09:46:03.198Z,979.18
2019-01-13T09:47:03.209Z,979.09
2019-01-13T09:48:03.213Z,979.15
2019-01-13T09:49:03.179Z,979.17
2019-01-13T09:50:03.168Z,979.19
2019-01-13T09:51:03.210Z,979.16
2019-01-13T09:52:03.132Z,979.09
2019-01-13T09:53:03.117Z,979.20
2019-01-13T09:54:03.135Z,979.16
2019-01-13T09:55:03.162Z,979.18
2019-01-13T09:56:03.176Z,979.14
2019-01-13T09:57:03.095Z,979.19
2019-01-13T09:58:03.084Z,979.18
2019-01-13T09:59:03.078Z,979.06
2019-01-13T10:00:03.068Z,979.16
2019-01-13T10:01:03.090Z,979.16
2019-01-13T10:02:03.024Z,979.13
2019-01-13T10:03:03.012Z,979.07
2019-01-13T10:04:03.086Z,978.96
2019-01-13T10:05:02.990Z,978.99
2019-01-13T10:06:02.977Z,978.98
2019-01-13T10:07:02.967Z,978.98
2019-01-13T10:08:03.009Z,978.87
2019-01-13T10:09:02.981Z,978.85
2019-01-13T10:10:02.935Z,978.93
2019-01-13T10:11:02.922Z,978.95
2019-01-13T10:12:02.918Z,978.99
2019-01-13T10:13:02.921Z,978.78
2019-01-13T10:14:02.927Z,978.71
2019-01-13T10:15:02.882Z,978.80
2019-01-13T10:16:02.899Z,978.73
2019-01-13T10:17:02.907Z,978.72
2019-01-13T10:18:02.855Z,978.74
2019-01-13T10:19:02.893Z,978.69
2019-01-13T10:20:02.829Z,978.69
2019-01-13T10:21:02.830Z,978.67
2019-01-13T10:22:02.861Z,978.83
2019-01-13T10:23:02.810Z,978.75
2019-01-13T10:24:02.895Z,978.86
2019-01-13T10:25:02.775Z,978.93
2019-01-13T10:26:02.772Z,978.91
2019-01-13T10:27:02.785Z,978.92
2019-01-13T10:28:02.751Z,978.84
2019-01-13T10:29:02.777Z,978.89
2019-01-13T10:30:02.727Z,978.92
2019-01-13T10:31:03.231Z,978.91
2019-01-13T10:32:02.770Z,978.86
2019-01-13T10:33:02.707Z,978.96
2019-01-13T10:34:02.707Z,978.89
2019-01-13T10:35:02.665Z,978.88
2019-01-13T10:36:02.690Z,978.80
2019-01-13T10:37:02.680Z,978.75
2019-01-13T10:38:02.730Z,978.72
2019-01-13T10:39:02.744Z,978.63
2019-01-13T10:40:02.645Z,978.61
2019-01-13T10:41:02.633Z,978.68
2019-01-13T10:42:02.626Z,978.72
2019-01-13T10:43:02.594Z,978.68
2019-01-13T10:46:42.212Z,978.63
2019-01-13T10:53:19.775Z,978.46
2019-01-13T10:54:19.055Z,978.40
2019-01-13T10:55:19.050Z,978.35
2019-01-13T10:56:19.039Z,978.32
2019-01-13T10:57:19.039Z,978.31
2019-01-13T10:58:19.058Z,978.22
2019-01-13T10:59:19.062Z,978.20
2019-01-13T11:00:19.001Z,978.21
2019-01-13T11:01:18.991Z,978.12
2019-01-13T11:02:19.085Z,978.18
2019-01-13T11:03:19.007Z,978.07
2019-01-13T11:04:18.948Z,978.07
2019-01-13T11:05:18.955Z,978.03
2019-01-13T11:06:18.942Z,978.05
2019-01-13T11:07:18.953Z,978.08
2019-01-13T11:08:18.919Z,978.00
2019-01-13T11:09:18.902Z,978.05
2019-01-13T11:10:18.924Z,978.03
2019-01-13T11:11:18.896Z,978.01
2019-01-13T11:12:18.862Z,978.04
2019-01-13T11:13:18.858Z,977.98
2019-01-13T11:14:18.853Z,977.86
2019-01-13T11:15:21.880Z,977.92
2019-01-13T11:16:18.866Z,977.90
2019-01-13T11:17:18.906Z,977.88
2019-01-13T11:18:18.809Z,977.87
2019-01-13T11:19:18.907Z,977.81
2019-01-13T11:20:18.785Z,977.91
2019-01-13T11:21:18.785Z,977.89
2019-01-13T11:22:18.787Z,977.84
2019-01-13T11:23:18.751Z,977.84
2019-01-13T11:24:18.757Z,977.90
2019-01-13T11:25:18.764Z,977.97
2019-01-13T11:26:18.721Z,977.87
2019-01-13T11:27:18.724Z,977.79
2019-01-13T11:28:18.699Z,977.75
2019-01-13T11:29:18.873Z,977.83
2019-01-13T11:30:18.688Z,977.78
2019-01-13T11:31:18.669Z,977.80
2019-01-13T11:32:18.648Z,977.86
2019-01-13T11:33:18.645Z,977.81
2019-01-13T11:34:18.671Z,977.79
2019-01-13T11:35:18.646Z,977.70
2019-01-13T11:36:18.632Z,977.71
2019-01-13T11:37:18.624Z,977.57
2019-01-13T11:38:18.604Z,977.57
2019-01-13T11:39:18.644Z,977.57
2019-01-13T11:40:18.631Z,977.59
2019-01-13T11:41:18.583Z,977.54
2019-01-13T11:42:18.563Z,977.52
2019-01-13T11:43:18.669Z,977.65
2019-01-13T11:44:18.621Z,977.65
2019-01-13T11:45:18.554Z,977.57
2019-01-13T11:46:18.510Z,977.52
2019-01-13T11:47:18.523Z,977.56
2019-01-13T11:48:18.495Z,977.43
2019-01-13T11:49:18.503Z,977.52
2019-01-13T11:50:19.353Z,977.50
2019-01-13T11:51:18.506Z,977.49
2019-01-13T11:52:18.465Z,977.50
2019-01-13T11:53:18.458Z,977.36
2019-01-13T11:54:18.423Z,977.42
2019-01-13T11:55:18.418Z,977.36
2019-01-13T11:56:18.415Z,977.37
2019-01-13T11:57:18.425Z,977.30
2019-01-13T11:58:18.371Z,977.28
2019-01-13T11:59:18.379Z,977.26
2019-01-13T12:00:18.371Z,977.26
2019-01-13T12:01:18.342Z,977.19
2019-01-13T12:02:18.327Z,977.23
2019-01-13T12:03:18.353Z,977.27
2019-01-13T12:04:18.314Z,977.22
2019-01-13T12:05:18.330Z,977.23
2019-01-13T12:06:18.298Z,977.26
2019-01-13T12:07:18.319Z,977.26
2019-01-13T12:08:18.267Z,977.28
2019-01-13T12:09:18.309Z,977.27
2019-01-13T12:10:18.246Z,977.16
2019-01-13T12:11:18.239Z,977.21
2019-01-13T12:12:18.456Z,977.17
2019-01-13T12:13:18.248Z,977.17
2019-01-13T12:14:18.261Z,977.08
2019-01-13T12:15:18.195Z,977.09
2019-01-13T12:16:18.190Z,977.08
2019-01-13T12:17:18.178Z,977.06
2019-01-13T12:18:18.185Z,977.08
2019-01-13T12:19:18.216Z,977.02
2019-01-13T12:20:18.140Z,977.00
2019-01-13T12:21:18.136Z,977.02
2019-01-13T12:22:18.172Z,977.06
2019-01-13T12:23:18.127Z,977.06
2019-01-13T12:24:18.106Z,976.94
2019-01-13T12:25:18.169Z,976.96
2019-01-13T12:26:18.096Z,976.98
2019-01-13T12:27:18.145Z,976.93
2019-01-13T12:28:18.079Z,976.96
2019-01-13T12:29:18.054Z,976.96
2019-01-13T12:30:18.031Z,976.94
2019-01-13T12:31:18.294Z,976.86
2019-01-13T12:32:18.012Z,976.85
2019-01-13T12:33:24.500Z,976.90
2019-01-13T12:34:19.071Z,976.85
2019-01-13T12:35:17.982Z,976.89
2019-01-13T12:36:18.054Z,976.78